createdAt,value
2018-10-18T00:01:59.431Z,47.53
2018-10-18T00:04:28.450Z,164.53
2018-10-18T00:06:57.456Z,52.07
2018-10-18T00:09:26.720Z,47.63
2018-10-18T00:11:56.026Z,47.80
2018-10-18T00:14:25.026Z,54.10
2018-10-18T00:16:54.282Z,51.03
2018-10-18T00:19:25.419Z,46.03
2018-10-18T00:21:55.745Z,44.73
2018-10-18T00:24:26.163Z,45.33
2018-10-18T00:26:57.295Z,49.67
2018-10-18T00:29:27.183Z,50.73
2018-10-18T00:31:56.460Z,48.90
2018-10-18T00:34:25.684Z,49.37
2018-10-18T00:36:54.938Z,48.50
2018-10-18T00:39:24.128Z,49.57
2018-10-18T00:41:53.184Z,49.77
2018-10-18T00:44:22.642Z,48.53
2018-10-18T00:46:51.647Z,48.87
2018-10-18T00:49:20.671Z,46.70
2018-10-18T00:51:49.673Z,48.80
2018-10-18T00:54:18.878Z,48.60
2018-10-18T00:56:48.130Z,48.20
2018-10-18T00:59:17.163Z,48.87
2018-10-18T01:01:46.437Z,47.63
2018-10-18T01:04:15.441Z,47.20
2018-10-18T01:06:44.827Z,47.50
2018-10-18T01:09:14.258Z,48.30
2018-10-18T01:11:43.291Z,48.27
2018-10-18T01:14:12.522Z,51.00
2018-10-18T01:16:41.790Z,49.03
2018-10-18T01:19:10.830Z,50.63
2018-10-18T01:21:39.860Z,48.00
2018-10-18T01:24:08.913Z,51.83
2018-10-18T01:26:37.913Z,50.60
2018-10-18T01:29:07.266Z,51.37
2018-10-18T01:31:36.901Z,48.23
2018-10-18T01:36:42.052Z,50.47
2018-10-18T01:39:11.475Z,50.80
2018-10-18T01:41:41.133Z,46.23
2018-10-18T01:44:10.871Z,45.57
2018-10-18T01:46:40.376Z,49.27
2018-10-18T01:49:09.420Z,48.10
2018-10-18T01:51:38.408Z,51.70
2018-10-18T01:54:07.462Z,49.73
2018-10-18T01:56:37.019Z,47.97
2018-10-18T01:59:06.172Z,49.30
2018-10-18T02:01:35.184Z,48.97
2018-10-18T02:04:04.240Z,49.57
2018-10-18T02:06:33.225Z,50.00
2018-10-18T02:09:04.860Z,54.30
2018-10-18T02:11:34.382Z,53.63
2018-10-18T02:14:03.427Z,52.47
2018-10-18T02:16:32.475Z,53.80
2018-10-18T02:19:01.545Z,52.27
2018-10-18T02:21:30.478Z,48.20
2018-10-18T02:23:59.517Z,51.60
2018-10-18T02:26:28.499Z,55.30
2018-10-18T02:28:57.782Z,52.77
2018-10-18T02:31:27.010Z,54.10
2018-10-18T02:33:56.303Z,53.83
2018-10-18T02:36:25.579Z,52.93
2018-10-18T02:38:54.609Z,52.23
2018-10-18T02:41:23.600Z,51.97
2018-10-18T02:43:52.626Z,53.73
2018-10-18T02:46:21.630Z,51.90
2018-10-18T02:48:50.619Z,50.67
2018-10-18T02:51:19.956Z,55.23
2018-10-18T02:53:48.959Z,51.37
2018-10-18T02:56:17.951Z,56.53
2018-10-18T02:58:46.947Z,53.27
2018-10-18T03:01:15.955Z,49.10
2018-10-18T03:03:44.939Z,51.53
2018-10-18T03:06:14.047Z,49.50
2018-10-18T03:08:43.205Z,50.73
2018-10-18T03:11:12.322Z,52.20
2018-10-18T03:13:41.424Z,56.13
2018-10-18T03:16:11.012Z,54.33
2018-10-18T03:18:39.940Z,50.80
2018-10-18T03:21:08.971Z,51.00
2018-10-18T03:23:37.995Z,52.67
2018-10-18T03:26:07.368Z,56.20
2018-10-18T03:28:36.367Z,52.07
2018-10-18T03:31:05.551Z,53.27
2018-10-18T03:33:34.580Z,54.87
2018-10-18T03:36:03.596Z,51.07
2018-10-18T03:38:32.599Z,51.00
2018-10-18T03:41:01.633Z,51.43
2018-10-18T03:43:30.667Z,51.67
2018-10-18T03:45:59.650Z,50.73
2018-10-18T03:48:28.677Z,55.03
2018-10-18T03:50:57.710Z,53.27
2018-10-18T03:53:26.731Z,53.87
2018-10-18T03:55:55.731Z,54.40
2018-10-18T03:58:24.723Z,53.40
2018-10-18T04:00:53.722Z,51.77
2018-10-18T04:03:22.723Z,53.33
2018-10-18T04:05:51.832Z,51.53
2018-10-18T04:08:21.186Z,50.17
2018-10-18T04:10:50.206Z,49.40
2018-10-18T04:13:19.294Z,50.80
2018-10-18T04:15:48.382Z,52.17
2018-10-18T04:18:17.364Z,52.23
2018-10-18T04:20:46.283Z,49.87
2018-10-18T04:23:19.471Z,48.90
2018-10-18T04:25:48.464Z,50.93
2018-10-18T04:28:17.792Z,50.37
2018-10-18T04:30:47.445Z,50.60
2018-10-18T04:33:16.678Z,64.57
2018-10-18T04:35:45.698Z,58.10
2018-10-18T04:38:14.703Z,53.23
2018-10-18T04:40:43.778Z,55.10
2018-10-18T04:43:12.855Z,53.67
2018-10-18T04:45:42.234Z,55.53
2018-10-18T04:48:11.540Z,53.30
2018-10-18T04:50:40.627Z,52.63
2018-10-18T04:53:09.848Z,55.80
2018-10-18T04:55:38.873Z,56.43
2018-10-18T04:58:08.128Z,55.13
2018-10-18T05:00:37.151Z,56.83
2018-10-18T05:03:06.150Z,58.73
2018-10-18T05:05:50.485Z,56.57
2018-10-18T05:08:20.477Z,60.17
2018-10-18T05:10:49.507Z,58.40
2018-10-18T05:13:18.689Z,58.23
2018-10-18T05:15:47.784Z,53.87
2018-10-18T05:18:17.078Z,55.37
2018-10-18T05:20:46.271Z,51.70
2018-10-18T05:23:15.463Z,51.97
2018-10-18T05:25:45.072Z,49.03
2018-10-18T05:28:14.069Z,52.03
2018-10-18T05:30:43.174Z,52.33
2018-10-18T05:33:12.174Z,52.23
2018-10-18T05:35:41.726Z,51.90
2018-10-18T05:38:10.996Z,53.00
2018-10-18T05:40:40.495Z,54.93
2018-10-18T05:43:09.602Z,54.20
2018-10-18T05:45:38.827Z,53.40
2018-10-18T05:48:07.893Z,52.37
2018-10-18T05:50:37.165Z,50.10
2018-10-18T05:53:06.368Z,50.10
2018-10-18T05:55:35.320Z,49.90
2018-10-18T05:58:04.418Z,49.27
2018-10-18T06:00:33.439Z,48.50
2018-10-18T06:03:02.472Z,47.53
2018-10-18T06:05:38.263Z,45.37
2018-10-18T06:08:07.315Z,44.93
2018-10-18T06:10:53.781Z,45.83
2018-10-18T06:13:23.097Z,44.67
2018-10-18T06:15:52.219Z,44.53
2018-10-18T06:18:21.231Z,45.47
2018-10-18T06:20:50.370Z,43.57
2018-10-18T06:23:19.470Z,43.80
2018-10-18T06:25:48.767Z,43.00
2018-10-18T06:28:17.797Z,43.00
2018-10-18T06:30:46.818Z,42.13
2018-10-18T06:33:15.841Z,42.03
2018-10-18T06:35:44.901Z,44.53
2018-10-18T06:38:13.923Z,42.90
2018-10-18T06:40:43.128Z,44.17
2018-10-18T06:43:12.187Z,43.93
2018-10-18T06:45:41.162Z,43.67
2018-10-18T06:48:10.227Z,44.87
2018-10-18T06:50:39.232Z,42.43
2018-10-18T06:53:08.271Z,45.27
2018-10-18T06:55:37.311Z,46.63
2018-10-18T06:58:06.316Z,43.53
2018-10-18T07:00:35.311Z,46.40
2018-10-18T07:03:04.447Z,48.23
2018-10-18T07:05:33.527Z,49.07
2018-10-18T07:08:02.790Z,41.50
2018-10-18T07:10:34.749Z,44.80
2018-10-18T07:13:03.951Z,43.03
2018-10-18T07:15:33.041Z,43.40
2018-10-18T07:18:02.211Z,46.33
2018-10-18T07:20:31.211Z,50.07
2018-10-18T07:23:00.238Z,44.20
2018-10-18T07:25:29.411Z,48.17
2018-10-18T07:27:58.617Z,52.70
2018-10-18T07:30:27.659Z,51.77
2018-10-18T07:32:56.674Z,55.17
2018-10-18T07:35:26.443Z,61.00
2018-10-18T07:37:55.464Z,63.40
2018-10-18T07:40:24.485Z,74.43
2018-10-18T07:42:53.530Z,81.60
2018-10-18T07:45:22.548Z,80.33
2018-10-18T07:47:51.599Z,82.43
2018-10-18T07:50:20.584Z,84.67
2018-10-18T07:52:49.598Z,79.23
2018-10-18T07:55:18.652Z,77.33
2018-10-18T07:57:47.689Z,79.00
2018-10-18T08:00:16.923Z,82.73
2018-10-18T08:02:46.098Z,83.93
2018-10-18T08:05:15.588Z,77.83
2018-10-18T08:07:44.892Z,79.87
2018-10-18T08:10:16.455Z,74.27
2018-10-18T08:12:45.551Z,82.43
2018-10-18T08:15:15.800Z,81.20
2018-10-18T08:17:45.380Z,76.07
2018-10-18T08:20:20.964Z,81.87
2018-10-18T08:22:49.962Z,82.77
2018-10-18T08:25:19.063Z,80.63
2018-10-18T08:27:48.105Z,79.00
2018-10-18T08:30:17.263Z,80.07
2018-10-18T08:32:46.357Z,81.37
2018-10-18T08:35:15.382Z,74.13
2018-10-18T08:37:44.908Z,77.70
2018-10-18T08:40:13.871Z,78.07
2018-10-18T08:42:42.886Z,80.90
2018-10-18T08:45:12.614Z,80.43
2018-10-18T08:47:41.630Z,76.83
2018-10-18T08:50:11.949Z,80.70
2018-10-18T08:52:40.954Z,80.87
2018-10-18T08:55:12.727Z,81.00
2018-10-18T08:57:42.488Z,76.33
2018-10-18T09:00:12.495Z,75.47
2018-10-18T09:02:42.371Z,75.07
2018-10-18T09:05:11.688Z,73.47
2018-10-18T09:07:41.481Z,77.80
2018-10-18T09:10:10.593Z,80.63
2018-10-18T09:12:40.337Z,72.57
2018-10-18T09:15:10.059Z,74.13
2018-10-18T09:17:39.248Z,70.87
2018-10-18T09:20:08.298Z,71.10
2018-10-18T09:22:37.663Z,72.33
2018-10-18T09:25:08.369Z,65.13
2018-10-18T09:27:37.555Z,65.30
2018-10-18T09:30:08.893Z,61.93
2018-10-18T09:32:38.020Z,61.03
2018-10-18T09:35:07.175Z,65.07
2018-10-18T09:37:36.298Z,68.13
2018-10-18T09:40:06.808Z,65.10
2018-10-18T09:42:36.114Z,60.87
2018-10-18T09:45:06.471Z,61.50
2018-10-18T09:47:35.754Z,62.20
2018-10-18T09:50:04.774Z,57.03
2018-10-18T09:52:33.818Z,61.57
2018-10-18T09:55:03.120Z,60.97
2018-10-18T09:57:32.095Z,65.47
2018-10-18T10:00:01.110Z,63.73
2018-10-18T10:02:35.614Z,57.60
2018-10-18T10:05:04.952Z,58.73
2018-10-18T10:07:34.193Z,55.27
2018-10-18T10:10:03.579Z,59.17
2018-10-18T10:12:32.881Z,54.83
2018-10-18T10:15:02.106Z,54.63
2018-10-18T10:17:31.440Z,52.63
2018-10-18T10:20:00.387Z,53.33
2018-10-18T10:22:29.393Z,52.33
2018-10-18T10:24:58.466Z,54.17
2018-10-18T10:27:27.977Z,55.30
2018-10-18T10:29:57.374Z,52.50
2018-10-18T10:32:26.426Z,53.70
2018-10-18T10:34:55.522Z,54.87
2018-10-18T10:37:24.496Z,47.87
2018-10-18T10:39:53.604Z,51.73
2018-10-18T10:42:22.767Z,51.73
2018-10-18T10:44:51.865Z,55.00
2018-10-18T10:47:20.807Z,53.80
2018-10-18T10:49:49.855Z,47.77
2018-10-18T10:52:18.945Z,48.50
2018-10-18T10:54:47.895Z,45.93
2018-10-18T10:57:17.230Z,44.33
2018-10-18T10:59:46.403Z,45.07
2018-10-18T11:02:15.760Z,42.47
2018-10-18T11:04:45.441Z,45.30
2018-10-18T11:07:14.571Z,43.90
2018-10-18T11:09:43.679Z,43.57
2018-10-18T11:12:12.873Z,44.13
2018-10-18T11:14:45.858Z,46.48
2018-10-18T11:17:16.481Z,46.17
2018-10-18T11:19:48.095Z,43.50
2018-10-18T11:22:17.158Z,48.60
2018-10-18T11:24:48.168Z,45.63
2018-10-18T11:27:18.869Z,49.63
2018-10-18T11:29:49.003Z,47.60
2018-10-18T11:32:18.444Z,51.57
2018-10-18T11:34:48.751Z,47.23
2018-10-18T11:37:18.973Z,52.07
2018-10-18T11:39:49.270Z,46.00
2018-10-18T11:42:19.438Z,48.00
2018-10-18T11:44:48.695Z,48.40
2018-10-18T11:47:18.063Z,53.00
2018-10-18T11:49:47.234Z,47.67
2018-10-18T11:52:17.846Z,45.60
2018-10-18T11:54:47.141Z,46.07
2018-10-18T11:57:16.177Z,53.37
2018-10-18T11:59:45.215Z,47.00
2018-10-18T12:02:14.516Z,52.73
2018-10-18T12:04:43.872Z,48.77
2018-10-18T12:07:12.891Z,48.97
2018-10-18T12:09:42.008Z,46.17
2018-10-18T12:12:11.324Z,48.27
2018-10-18T12:14:40.601Z,49.47
2018-10-18T12:17:09.679Z,45.30
2018-10-18T12:19:39.061Z,46.20
2018-10-18T12:22:08.070Z,50.93
2018-10-18T12:24:37.062Z,48.67
2018-10-18T12:27:06.741Z,49.80
2018-10-18T12:29:35.828Z,51.67
2018-10-18T12:32:04.960Z,49.83
2018-10-18T12:34:33.918Z,45.27
2018-10-18T12:37:02.966Z,49.80
2018-10-18T12:39:32.001Z,48.43
2018-10-18T12:42:01.033Z,45.33
2018-10-18T12:44:34.078Z,44.33
2018-10-18T12:47:03.109Z,45.20
2018-10-18T12:49:32.123Z,42.93
2018-10-18T12:52:01.219Z,43.23
2018-10-18T12:54:30.258Z,44.47
2018-10-18T12:56:59.222Z,46.43
2018-10-18T12:59:28.551Z,47.60
2018-10-18T13:01:57.724Z,52.17
2018-10-18T13:04:26.695Z,54.07
2018-10-18T13:06:56.000Z,55.07
2018-10-18T13:09:26.274Z,49.07
2018-10-18T13:11:56.558Z,53.80
2018-10-18T13:14:25.793Z,51.37
2018-10-18T13:16:57.237Z,51.53
2018-10-18T13:19:26.548Z,51.93
2018-10-18T13:21:55.839Z,51.00
2018-10-18T13:24:24.913Z,45.93
2018-10-18T13:26:54.363Z,49.33
2018-10-18T13:29:23.760Z,46.70
2018-10-18T13:31:53.380Z,49.53
2018-10-18T13:34:22.365Z,58.03
2018-10-18T13:36:51.486Z,48.57
2018-10-18T13:39:20.687Z,48.10
2018-10-18T13:41:50.038Z,48.57
2018-10-18T13:44:19.146Z,51.10
2018-10-18T13:46:48.075Z,52.87
2018-10-18T13:49:17.275Z,47.17
2018-10-18T13:51:46.249Z,45.47
2018-10-18T13:54:15.430Z,48.77
2018-10-18T13:56:44.453Z,46.30
2018-10-18T13:59:29.171Z,45.73
2018-10-18T14:01:58.436Z,44.07
2018-10-18T14:04:27.413Z,44.13
2018-10-18T14:06:56.429Z,43.27
2018-10-18T14:09:26.055Z,43.17
2018-10-18T14:11:55.055Z,45.97
2018-10-18T14:14:24.037Z,43.97
2018-10-18T14:16:53.661Z,41.90
2018-10-18T14:19:22.945Z,42.67
2018-10-18T14:21:52.348Z,44.53
2018-10-18T14:24:21.678Z,43.10
2018-10-18T14:26:51.513Z,46.27
2018-10-18T14:29:20.757Z,44.03
2018-10-18T14:31:49.691Z,46.60
2018-10-18T14:34:18.683Z,45.63
2018-10-18T14:36:48.742Z,43.10
2018-10-18T14:39:19.387Z,44.83
2018-10-18T14:41:50.686Z,42.80
2018-10-18T14:44:20.075Z,44.87
2018-10-18T14:46:49.050Z,45.90
2018-10-18T14:49:18.292Z,40.87
2018-10-18T14:51:47.345Z,41.87
2018-10-18T14:54:16.572Z,43.70
2018-10-18T14:56:45.826Z,44.77
2018-10-18T14:59:15.038Z,43.23
2018-10-18T15:01:44.048Z,41.30
2018-10-18T15:04:13.112Z,45.70
2018-10-18T15:06:42.127Z,43.37
2018-10-18T15:09:11.149Z,42.37
2018-10-18T15:11:40.165Z,44.03
2018-10-18T15:14:09.397Z,42.40
2018-10-18T15:16:38.886Z,46.23
2018-10-18T15:19:08.027Z,38.97
2018-10-18T15:21:37.251Z,41.13
2018-10-18T15:24:08.172Z,38.80
2018-10-18T15:26:37.434Z,44.80
2018-10-18T15:29:07.018Z,42.77
2018-10-18T15:38:33.838Z,39.10
2018-10-18T15:41:03.061Z,40.73
2018-10-18T15:43:32.285Z,39.43
2018-10-18T15:46:01.454Z,40.77
2018-10-18T15:48:30.452Z,40.90
2018-10-18T15:50:59.473Z,42.47
2018-10-18T15:53:28.756Z,47.73
2018-10-18T15:55:57.844Z,40.17
2018-10-18T15:58:27.108Z,41.63
2018-10-18T16:00:56.196Z,41.17
2018-10-18T16:03:25.294Z,41.90
2018-10-18T16:05:54.859Z,39.57
2018-10-18T16:08:23.877Z,41.20
2018-10-18T16:10:52.959Z,42.27
2018-10-18T16:13:22.016Z,41.10
2018-10-18T16:15:51.178Z,43.47
2018-10-18T16:18:20.336Z,40.23
2018-10-18T16:20:49.456Z,40.63
2018-10-18T16:23:18.708Z,41.73
2018-10-18T16:25:47.963Z,43.60
2018-10-18T16:28:17.338Z,40.40
2018-10-18T16:30:46.516Z,46.23
2018-10-18T16:33:15.599Z,45.67
2018-10-18T16:35:44.740Z,46.90
2018-10-18T16:38:13.855Z,41.93
2018-10-18T16:40:43.300Z,45.73
2018-10-18T16:43:12.882Z,48.10
2018-10-18T16:45:42.589Z,41.83
2018-10-18T16:48:12.408Z,39.97
2018-10-18T16:50:42.700Z,41.13
2018-10-18T16:53:11.932Z,36.23
2018-10-18T16:55:41.028Z,42.27
2018-10-18T16:58:10.337Z,32.80
2018-10-18T17:00:39.353Z,31.07
2018-10-18T17:03:08.376Z,31.97
2018-10-18T17:05:37.698Z,24.80
2018-10-18T17:08:06.900Z,26.27
2018-10-18T17:13:12.761Z,26.30
2018-10-18T17:15:41.777Z,23.10
2018-10-18T17:18:10.979Z,24.83
2018-10-18T17:20:40.072Z,22.30
2018-10-18T17:23:09.037Z,21.50
2018-10-18T17:25:38.071Z,20.80
2018-10-18T17:28:07.060Z,20.10
2018-10-18T17:30:36.403Z,20.57
2018-10-18T17:33:05.469Z,24.13
2018-10-18T17:35:35.161Z,22.03
2018-10-18T17:38:04.183Z,19.63
2018-10-18T17:40:33.252Z,24.83
2018-10-18T17:43:02.337Z,23.40
2018-10-18T17:45:31.358Z,24.90
2018-10-18T17:48:00.674Z,24.67
2018-10-18T17:50:31.083Z,25.03
2018-10-18T17:53:00.541Z,28.10
2018-10-18T17:55:30.666Z,29.10
2018-10-18T17:57:59.837Z,30.27
2018-10-18T18:00:28.932Z,24.93
2018-10-18T18:02:58.092Z,23.23
2018-10-18T18:05:27.515Z,23.70
2018-10-18T18:07:56.704Z,26.03
2018-10-18T18:10:25.756Z,26.90
2018-10-18T18:12:54.857Z,25.07
2018-10-18T18:15:23.929Z,28.13
2018-10-18T18:17:52.925Z,27.33
2018-10-18T18:20:22.106Z,23.83
2018-10-18T18:22:51.415Z,26.23
2018-10-18T18:25:20.410Z,27.27
2018-10-18T18:27:49.434Z,23.97
2018-10-18T18:30:18.793Z,24.60
2018-10-18T18:32:48.038Z,23.63
2018-10-18T18:35:17.094Z,26.87
2018-10-18T18:37:46.149Z,28.90
2018-10-18T18:40:15.351Z,30.30
2018-10-18T18:42:45.117Z,23.90
2018-10-18T18:45:19.576Z,23.80
2018-10-18T18:47:48.492Z,22.60
2018-10-18T18:50:17.687Z,22.07
2018-10-18T18:52:47.021Z,21.00
2018-10-18T18:55:17.205Z,23.33
2018-10-18T18:57:47.307Z,22.10
2018-10-18T19:00:18.280Z,20.17
2018-10-18T19:02:48.698Z,19.80
2018-10-18T19:05:18.991Z,15.97
2018-10-18T19:07:49.497Z,17.77
2018-10-18T19:10:19.487Z,17.13
2018-10-18T19:12:49.379Z,16.43
2018-10-18T19:15:19.091Z,17.13
2018-10-18T19:17:48.147Z,12.83
2018-10-18T19:20:18.734Z,11.93
2018-10-18T19:22:49.467Z,12.43
2018-10-18T19:25:18.719Z,11.33
2018-10-18T19:27:48.618Z,11.67
2018-10-18T19:30:19.026Z,10.70
2018-10-18T19:32:48.595Z,11.40
2018-10-18T19:35:17.699Z,12.60
2018-10-18T19:37:47.146Z,9.73
2018-10-18T19:40:18.638Z,11.07
2018-10-18T19:42:48.546Z,9.83
2018-10-18T19:45:19.092Z,10.03
2018-10-18T19:47:49.266Z,11.10
2018-10-18T19:50:18.414Z,9.67
2018-10-18T19:52:47.856Z,10.57
2018-10-18T19:55:16.971Z,8.43
2018-10-18T19:57:47.983Z,8.27
2018-10-18T20:00:17.053Z,9.23
2018-10-18T20:02:46.599Z,8.90
2018-10-18T20:05:16.052Z,10.30
2018-10-18T20:07:46.687Z,10.03
2018-10-18T20:10:17.423Z,8.87
2018-10-18T20:12:47.696Z,8.97
2018-10-18T20:15:18.230Z,10.53
2018-10-18T20:17:48.711Z,8.63
2018-10-18T20:20:18.708Z,9.33
2018-10-18T20:22:48.109Z,8.30
2018-10-18T20:25:17.901Z,8.33
2018-10-18T20:27:47.852Z,7.67
2018-10-18T20:30:18.459Z,8.70
2018-10-18T20:32:47.743Z,8.60
2018-10-18T20:35:18.243Z,8.87
2018-10-18T20:37:47.719Z,9.23
2018-10-18T20:40:17.560Z,10.00
2018-10-18T20:42:47.152Z,9.00
2018-10-18T20:45:22.588Z,8.27
2018-10-18T20:47:52.436Z,7.47
2018-10-18T20:50:21.677Z,7.33
2018-10-18T20:52:51.610Z,6.17
2018-10-18T20:55:22.997Z,7.47
2018-10-18T20:57:52.897Z,6.33
2018-10-18T21:00:23.966Z,5.37
2018-10-18T21:02:55.010Z,5.40
2018-10-18T21:05:25.994Z,6.40
2018-10-18T21:07:55.967Z,5.50
2018-10-18T21:10:26.532Z,5.23
2018-10-18T21:12:55.912Z,4.60
2018-10-18T21:17:52.942Z,4.53
2018-10-18T21:23:49.229Z,4.23
2018-10-18T21:33:16.374Z,3.53
2018-10-18T21:38:32.783Z,3.52
2018-10-18T21:43:41.110Z,3.50
2018-10-18T21:46:10.499Z,3.17
2018-10-18T21:48:40.087Z,2.30
2018-10-18T21:51:09.671Z,3.00
2018-10-18T21:53:45.570Z,2.27
2018-10-18T21:56:15.207Z,2.97
2018-10-18T22:01:23.862Z,2.37
2018-10-18T22:03:53.087Z,2.33
2018-10-18T22:06:24.874Z,2.17
2018-10-18T22:08:55.496Z,2.40
2018-10-18T22:11:25.225Z,2.33
2018-10-18T22:13:56.696Z,2.17
2018-10-18T22:16:30.167Z,2.33
2018-10-18T22:19:00.217Z,2.50
2018-10-18T22:21:29.310Z,2.13
2018-10-18T22:24:00.723Z,1.93
2018-10-18T22:26:33.407Z,1.33
2018-10-18T22:29:02.860Z,1.90
2018-10-18T22:31:33.709Z,1.87
2018-10-18T22:34:03.093Z,2.10
2018-10-18T22:36:32.450Z,2.00
2018-10-18T22:39:02.330Z,1.90
2018-10-18T22:41:31.656Z,2.17
2018-10-18T22:44:01.295Z,1.93
2018-10-18T22:46:31.630Z,2.50
2018-10-18T22:49:00.834Z,1.90
2018-10-18T22:51:29.998Z,2.00
2018-10-18T22:53:59.151Z,2.00
2018-10-18T22:56:28.465Z,2.60
2018-10-18T22:58:57.747Z,2.03
2018-10-18T23:01:26.832Z,2.20
2018-10-18T23:03:56.030Z,1.83
2018-10-18T23:06:25.056Z,1.70
2018-10-18T23:08:54.464Z,2.20
2018-10-18T23:11:23.837Z,2.23
2018-10-18T23:13:53.004Z,1.87
2018-10-18T23:16:21.967Z,2.13
2018-10-18T23:18:51.601Z,2.50
2018-10-18T23:21:20.652Z,2.27
2018-10-18T23:23:49.646Z,2.13
2018-10-18T23:26:18.865Z,2.50
2018-10-18T23:28:47.957Z,1.90
2018-10-18T23:31:17.090Z,2.37
2018-10-18T23:33:46.130Z,2.00
2018-10-18T23:36:15.133Z,2.50
2018-10-18T23:38:44.535Z,2.33
2018-10-18T23:41:13.673Z,2.80
2018-10-18T23:43:42.831Z,2.27
2018-10-18T23:46:11.870Z,2.07
2018-10-18T23:48:40.896Z,2.60
2018-10-18T23:51:09.908Z,2.40
2018-10-18T23:53:38.919Z,1.73
2018-10-18T23:56:08.134Z,1.73
2018-10-18T23:58:38.631Z,2.43
